Time;durP1;ratioP1;P1;durP2;ratioP2;P2;SDS_P1;SDS_P2;PMS_P1;PMS_P2;Temp;Humidity;BMP_temperature;BMP_pressure;BME280_temperature;BME280_humidity;BME280_pressure;Samples;Min_cycle;Max_cycle;Signal;HPM_P1;HPM_P2
2023/07/02 00:01:33;;;;;;;14.83;9.90;;;;;;;;;;5032517;28;20465;-75
2023/07/02 00:03:59;;;;;;;11.73;8.97;;;;;;;;;;5040883;28;20481;-75
2023/07/02 00:06:26;;;;;;;13.10;9.40;;;;;;;;;;5037972;28;20567;-75
2023/07/02 00:08:52;;;;;;;12.97;11.07;;;;;;;;;;5038688;28;20492;-76
2023/07/02 00:11:19;;;;;;;11.27;10.00;;;;;;;;;;5037049;28;20485;-75
2023/07/02 00:13:45;;;;;;;12.57;11.27;;;;;;;;;;5036335;28;20923;-75
2023/07/02 00:16:11;;;;;;;12.53;10.80;;;;;;;;;;5031051;28;20594;-75
2023/07/02 00:18:39;;;;;;;13.00;11.70;;;;;;;;;;5037259;28;20477;-74
2023/07/02 00:21:06;;;;;;;13.20;11.90;;;;;;;;;;5038152;28;20451;-76
2023/07/02 00:23:33;;;;;;;17.33;12.97;;;;;;;;;;5037715;28;20474;-76
2023/07/02 00:25:59;;;;;;;14.93;13.53;;;;;;;;;;5037970;28;20604;-76
2023/07/02 00:28:26;;;;;;;13.67;12.30;;;;;;;;;;5030037;28;20526;-76
2023/07/02 00:30:52;;;;;;;12.87;11.67;;;;;;;;;;5035215;28;20453;-77
2023/07/02 00:33:18;;;;;;;13.53;12.23;;;;;;;;;;5039577;28;20489;-76
2023/07/02 00:35:46;;;;;;;13.00;11.67;;;;;;;;;;5033444;28;20489;-75
2023/07/02 00:38:12;;;;;;;13.60;12.20;;;;;;;;;;5038584;28;20441;-76
2023/07/02 00:40:39;;;;;;;13.00;11.70;;;;;;;;;;5039799;28;20518;-75
2023/07/02 00:43:05;;;;;;;14.13;12.77;;;;;;;;;;5036605;28;20504;-75
2023/07/02 00:45:32;;;;;;;13.50;12.20;;;;;;;;;;5039088;28;20493;-76
2023/07/02 00:47:59;;;;;;;17.00;12.60;;;;;;;;;;5034892;28;20450;-76
2023/07/02 00:50:25;;;;;;;14.83;12.60;;;;;;;;;;5035344;28;20453;-76
2023/07/02 00:52:53;;;;;;;12.90;11.70;;;;;;;;;;5038840;28;20592;-77
2023/07/02 00:55:20;;;;;;;13.83;12.47;;;;;;;;;;5032584;28;20468;-76
2023/07/02 00:57:47;;;;;;;13.23;11.03;;;;;;;;;;5032623;28;20492;-76
2023/07/02 01:00:14;;;;;;;11.17;10.27;;;;;;;;;;5033743;28;20898;-76
2023/07/02 01:02:43;;;;;;;13.80;11.00;;;;;;;;;;5039465;28;20450;-76
2023/07/02 01:05:10;;;;;;;12.33;11.07;;;;;;;;;;5033360;28;20990;-76
2023/07/02 01:07:36;;;;;;;11.03;9.93;;;;;;;;;;5037366;28;21051;-76
2023/07/02 01:10:04;;;;;;;10.60;9.70;;;;;;;;;;5039737;28;20462;-76
2023/07/02 01:12:31;;;;;;;14.63;11.30;;;;;;;;;;5038248;28;20478;-75
2023/07/02 01:14:59;;;;;;;11.90;10.70;;;;;;;;;;5038216;28;20453;-76
2023/07/02 01:17:27;;;;;;;12.40;11.13;;;;;;;;;;5039197;28;20450;-76
2023/07/02 01:19:58;;;;;;;11.47;10.47;;;;;;;;;;5039424;28;20548;-75
2023/07/02 01:22:26;;;;;;;13.67;9.47;;;;;;;;;;5031406;28;20461;-75
2023/07/02 01:24:52;;;;;;;11.10;10.10;;;;;;;;;;5050803;28;20533;-76
2023/07/02 01:27:19;;;;;;;10.60;9.60;;;;;;;;;;5042694;28;20481;-75
2023/07/02 01:29:46;;;;;;;12.20;11.10;;;;;;;;;;5042968;28;20888;-75
2023/07/02 01:32:13;;;;;;;11.03;9.93;;;;;;;;;;5034487;28;20509;-75
2023/07/02 01:34:39;;;;;;;13.70;10.00;;;;;;;;;;5037431;28;20978;-75
2023/07/02 01:37:09;;;;;;;12.40;11.10;;;;;;;;;;5032866;28;20842;-76
2023/07/02 01:39:35;;;;;;;10.53;9.63;;;;;;;;;;5040239;28;20549;-75
2023/07/02 01:42:08;;;;;;;12.33;11.23;;;;;;;;;;5041358;28;20982;-75
2023/07/02 01:44:35;;;;;;;11.93;10.00;;;;;;;;;;5038526;28;20760;-74
2023/07/02 01:47:01;;;;;;;11.70;10.50;;;;;;;;;;5040285;28;20501;-75
2023/07/02 01:49:28;;;;;;;12.47;10.80;;;;;;;;;;5038231;28;20532;-74
2023/07/02 01:51:55;;;;;;;13.83;12.37;;;;;;;;;;5038430;28;20555;-75
2023/07/02 01:54:23;;;;;;;12.30;11.20;;;;;;;;;;5039906;28;20480;-75
2023/07/02 01:56:49;;;;;;;12.73;11.63;;;;;;;;;;5034670;28;20470;-76
2023/07/02 01:59:16;;;;;;;14.37;12.60;;;;;;;;;;5042227;28;20485;-75
2023/07/02 02:01:43;;;;;;;15.13;13.03;;;;;;;;;;5038133;28;20479;-75
2023/07/02 02:04:10;;;;;;;14.23;12.93;;;;;;;;;;5037795;28;20484;-75
2023/07/02 02:06:36;;;;;;;14.63;13.17;;;;;;;;;;5032474;28;21036;-74
2023/07/02 02:09:04;;;;;;;14.80;12.60;;;;;;;;;;5032959;28;20453;-75
2023/07/02 02:11:32;;;;;;;16.97;15.23;;;;;;;;;;5038328;28;20473;-74
2023/07/02 02:13:58;;;;;;;16.10;14.40;;;;;;;;;;5029629;28;20465;-76
2023/07/02 02:16:24;;;;;;;16.00;14.20;;;;;;;;;;5039808;28;20497;-76
2023/07/02 02:18:51;;;;;;;14.97;13.37;;;;;;;;;;5035017;28;20518;-75
2023/07/02 02:21:18;;;;;;;15.70;14.10;;;;;;;;;;5028727;28;20457;-78
2023/07/02 02:23:44;;;;;;;15.63;14.23;;;;;;;;;;5038295;28;20503;-75
2023/07/02 02:26:11;;;;;;;16.03;14.40;;;;;;;;;;5039451;28;20508;-75
2023/07/02 02:28:39;;;;;;;14.97;13.50;;;;;;;;;;5032253;28;20478;-76
2023/07/02 02:31:06;;;;;;;15.07;13.67;;;;;;;;;;5037354;28;20458;-77
2023/07/02 02:33:33;;;;;;;17.07;15.40;;;;;;;;;;5038580;28;20477;-76
2023/07/02 02:35:59;;;;;;;16.70;15.07;;;;;;;;;;5039760;28;20490;-76
2023/07/02 02:38:25;;;;;;;16.73;14.80;;;;;;;;;;5041316;28;20521;-77
2023/07/02 02:40:52;;;;;;;19.67;16.97;;;;;;;;;;5030635;28;20544;-77
2023/07/02 02:43:18;;;;;;;17.37;15.63;;;;;;;;;;5038751;28;20536;-76
2023/07/02 02:45:46;;;;;;;18.97;17.10;;;;;;;;;;5038427;28;20510;-77
2023/07/02 02:48:13;;;;;;;19.60;17.90;;;;;;;;;;5040120;28;20481;-76
2023/07/02 02:50:41;;;;;;;22.10;18.97;;;;;;;;;;5040230;28;20544;-77
2023/07/02 02:53:07;;;;;;;19.47;17.47;;;;;;;;;;5033541;28;20515;-77
2023/07/02 02:55:34;;;;;;;20.07;18.17;;;;;;;;;;5039673;28;21207;-76
2023/07/02 02:58:00;;;;;;;19.57;17.67;;;;;;;;;;5037688;28;20450;-75
2023/07/02 03:00:27;;;;;;;19.83;17.87;;;;;;;;;;5040271;28;20547;-77
2023/07/02 03:02:55;;;;;;;21.83;18.50;;;;;;;;;;5034705;28;20513;-76
2023/07/02 03:05:22;;;;;;;26.20;19.63;;;;;;;;;;5039130;28;20469;-77
2023/07/02 03:07:48;;;;;;;23.20;20.87;;;;;;;;;;5038069;28;20501;-76
2023/07/02 03:10:14;;;;;;;24.07;20.00;;;;;;;;;;5030364;28;20867;-77
2023/07/02 03:12:41;;;;;;;21.40;19.20;;;;;;;;;;5040755;28;20481;-76
2023/07/02 03:15:09;;;;;;;22.73;20.07;;;;;;;;;;5032994;28;20577;-77
2023/07/02 03:17:35;;;;;;;21.23;19.10;;;;;;;;;;5037527;28;20481;-75
2023/07/02 03:20:03;;;;;;;22.63;20.23;;;;;;;;;;5040625;28;20472;-76
2023/07/02 03:22:30;;;;;;;21.07;18.87;;;;;;;;;;5040623;28;20468;-76
2023/07/02 03:24:56;;;;;;;27.57;19.70;;;;;;;;;;5039508;28;20457;-76
2023/07/02 03:27:23;;;;;;;24.93;19.37;;;;;;;;;;5040468;28;20622;-76
2023/07/02 03:29:49;;;;;;;22.63;20.20;;;;;;;;;;5041101;28;20477;-77
2023/07/02 03:32:15;;;;;;;25.27;21.00;;;;;;;;;;5034459;28;20458;-76
2023/07/02 03:34:42;;;;;;;19.93;17.77;;;;;;;;;;5039646;28;20508;-75
2023/07/02 03:37:10;;;;;;;21.30;19.20;;;;;;;;;;5039249;28;20560;-75
2023/07/02 03:39:36;;;;;;;22.60;19.47;;;;;;;;;;5035606;28;20530;-75
2023/07/02 03:42:03;;;;;;;23.40;20.90;;;;;;;;;;5038089;28;20505;-76
2023/07/02 03:44:29;;;;;;;25.70;21.03;;;;;;;;;;5040072;28;20477;-75
2023/07/02 03:46:55;;;;;;;25.40;22.23;;;;;;;;;;5037900;28;20568;-75
2023/07/02 03:49:22;;;;;;;24.70;22.30;;;;;;;;;;5040335;28;20581;-75
2023/07/02 03:51:48;;;;;;;24.47;22.03;;;;;;;;;;5040166;28;21049;-74
2023/07/02 03:54:16;;;;;;;24.90;22.13;;;;;;;;;;5040541;28;20454;-75
2023/07/02 03:56:42;;;;;;;27.60;20.87;;;;;;;;;;5041358;28;20455;-74
2023/07/02 03:59:09;;;;;;;21.63;19.33;;;;;;;;;;5034739;28;20473;-75
2023/07/02 04:01:35;;;;;;;23.80;19.03;;;;;;;;;;5040529;28;20517;-74
2023/07/02 04:04:01;;;;;;;22.07;19.63;;;;;;;;;;5037738;28;20523;-74
2023/07/02 04:06:28;;;;;;;27.93;20.73;;;;;;;;;;5038656;28;20572;-75
2023/07/02 04:08:54;;;;;;;25.80;21.63;;;;;;;;;;5028321;28;20510;-75
2023/07/02 04:11:22;;;;;;;22.57;19.73;;;;;;;;;;5039435;28;20472;-74
2023/07/02 04:13:48;;;;;;;24.00;19.63;;;;;;;;;;5034565;28;20469;-74
2023/07/02 04:16:15;;;;;;;23.80;15.87;;;;;;;;;;5040450;28;20525;-75
2023/07/02 04:18:41;;;;;;;16.60;14.30;;;;;;;;;;5035246;28;20545;-75
2023/07/02 04:21:07;;;;;;;18.50;13.60;;;;;;;;;;5040414;28;20454;-75
2023/07/02 04:23:34;;;;;;;15.53;9.23;;;;;;;;;;5038408;28;20533;-75
2023/07/02 04:26:00;;;;;;;17.97;8.97;;;;;;;;;;5037188;28;20450;-75
2023/07/02 04:28:29;;;;;;;14.00;8.20;;;;;;;;;;5038594;28;20592;-76
2023/07/02 04:30:55;;;;;;;18.07;9.87;;;;;;;;;;5039654;28;20509;-74
2023/07/02 04:33:22;;;;;;;15.87;9.20;;;;;;;;;;5030919;28;20525;-75
2023/07/02 04:35:48;;;;;;;12.33;8.50;;;;;;;;;;5034159;28;20495;-76
2023/07/02 04:38:14;;;;;;;13.27;8.63;;;;;;;;;;5037279;28;20460;-76
2023/07/02 04:40:44;;;;;;;17.10;9.40;;;;;;;;;;5038393;28;20552;-76
2023/07/02 04:43:10;;;;;;;11.83;9.10;;;;;;;;;;5035080;28;20458;-76
2023/07/02 04:45:39;;;;;;;15.17;8.37;;;;;;;;;;5036686;28;20585;-76
2023/07/02 04:48:06;;;;;;;15.67;8.67;;;;;;;;;;5035212;28;20563;-76
2023/07/02 04:50:32;;;;;;;15.93;9.23;;;;;;;;;;5038699;28;20517;-76
2023/07/02 04:52:58;;;;;;;14.80;9.30;;;;;;;;;;5042923;28;20521;-76
2023/07/02 04:55:25;;;;;;;13.33;8.93;;;;;;;;;;5041882;28;20506;-75
2023/07/02 04:57:51;;;;;;;15.27;8.93;;;;;;;;;;5039881;28;20461;-75
2023/07/02 05:00:18;;;;;;;12.17;8.10;;;;;;;;;;5042106;28;20544;-75
2023/07/02 05:02:46;;;;;;;11.70;8.60;;;;;;;;;;5038478;28;20473;-75
2023/07/02 05:05:12;;;;;;;18.40;8.00;;;;;;;;;;5039167;28;20454;-75
2023/07/02 05:07:40;;;;;;;14.00;8.03;;;;;;;;;;5038876;28;20568;-76
2023/07/02 05:10:07;;;;;;;17.07;9.00;;;;;;;;;;5043752;28;20686;-75
2023/07/02 05:12:33;;;;;;;12.13;7.70;;;;;;;;;;5041128;28;20485;-74
2023/07/02 05:15:00;;;;;;;13.00;7.00;;;;;;;;;;5041233;28;20477;-75
2023/07/02 05:17:26;;;;;;;13.60;7.00;;;;;;;;;;5041467;28;20457;-75
2023/07/02 05:19:54;;;;;;;16.23;8.20;;;;;;;;;;5033724;28;20533;-75
2023/07/02 05:22:21;;;;;;;10.70;6.97;;;;;;;;;;5042351;28;20466;-76
2023/07/02 05:24:47;;;;;;;10.90;7.00;;;;;;;;;;5047835;28;20988;-76
2023/07/02 05:27:13;;;;;;;15.83;7.87;;;;;;;;;;5041366;28;20558;-75
2023/07/02 05:29:40;;;;;;;15.50;8.00;;;;;;;;;;5042302;28;20526;-76
2023/07/02 05:32:06;;;;;;;14.33;7.50;;;;;;;;;;5040877;28;20482;-75
2023/07/02 05:34:33;;;;;;;16.07;7.70;;;;;;;;;;5032315;28;20465;-75
2023/07/02 05:37:01;;;;;;;18.57;8.80;;;;;;;;;;5038773;28;20579;-75
2023/07/02 05:39:27;;;;;;;17.80;8.03;;;;;;;;;;5033075;28;20822;-76
2023/07/02 05:41:53;;;;;;;16.10;7.77;;;;;;;;;;5030661;28;20486;-75
2023/07/02 05:44:20;;;;;;;18.17;7.80;;;;;;;;;;5035779;28;20509;-75
2023/07/02 05:46:46;;;;;;;11.90;7.33;;;;;;;;;;5036271;28;20517;-75
2023/07/02 05:49:13;;;;;;;17.63;7.80;;;;;;;;;;5035985;28;20549;-75
2023/07/02 05:51:39;;;;;;;15.93;7.23;;;;;;;;;;5030835;28;20510;-75
2023/07/02 05:54:07;;;;;;;18.20;8.00;;;;;;;;;;5041741;28;20481;-74
2023/07/02 05:56:33;;;;;;;16.30;8.27;;;;;;;;;;5039993;28;20532;-75
2023/07/02 05:58:59;;;;;;;13.10;6.90;;;;;;;;;;5036107;28;20450;-75
2023/07/02 06:01:26;;;;;;;14.63;7.47;;;;;;;;;;5038771;28;20450;-76
2023/07/02 06:03:52;;;;;;;16.57;7.87;;;;;;;;;;5031197;28;21078;-76
2023/07/02 06:06:19;;;;;;;21.93;7.53;;;;;;;;;;5035900;28;20645;-77
2023/07/02 06:08:45;;;;;;;14.10;7.30;;;;;;;;;;5038300;28;20476;-75
2023/07/02 06:11:13;;;;;;;16.63;8.50;;;;;;;;;;5039905;28;20556;-75
2023/07/02 06:13:39;;;;;;;14.77;7.43;;;;;;;;;;5041057;28;20550;-75
2023/07/02 06:16:06;;;;;;;13.13;8.57;;;;;;;;;;5037365;28;20525;-73
2023/07/02 06:18:32;;;;;;;15.67;7.60;;;;;;;;;;5040124;28;20473;-73
2023/07/02 06:20:59;;;;;;;15.53;8.80;;;;;;;;;;5040429;28;20540;-73
2023/07/02 06:23:25;;;;;;;14.03;7.33;;;;;;;;;;5039758;28;20484;-73
2023/07/02 06:25:58;;;;;;;14.27;7.97;;;;;;;;;;5040021;28;20530;-74
2023/07/02 06:28:26;;;;;;;13.03;7.57;;;;;;;;;;5042706;28;20477;-73
2023/07/02 06:30:52;;;;;;;16.60;8.60;;;;;;;;;;5038823;28;20525;-73
2023/07/02 06:33:18;;;;;;;17.93;8.33;;;;;;;;;;5040552;28;20468;-74
2023/07/02 06:35:45;;;;;;;17.87;7.97;;;;;;;;;;5038947;28;20487;-74
2023/07/02 06:38:11;;;;;;;18.47;8.60;;;;;;;;;;5039518;28;20446;-74
2023/07/02 06:40:38;;;;;;;16.23;8.60;;;;;;;;;;5040985;28;20481;-75
2023/07/02 06:43:04;;;;;;;16.60;7.93;;;;;;;;;;5040823;28;20461;-73
2023/07/02 06:45:32;;;;;;;15.50;8.70;;;;;;;;;;5040761;28;20493;-73
2023/07/02 06:47:58;;;;;;;17.93;8.30;;;;;;;;;;5035390;28;20542;-74
2023/07/02 06:50:25;;;;;;;12.93;7.90;;;;;;;;;;5039605;28;20516;-74
2023/07/02 06:52:51;;;;;;;15.17;8.27;;;;;;;;;;5038293;28;20458;-74
2023/07/02 06:55:17;;;;;;;13.73;7.90;;;;;;;;;;5029733;28;20509;-73
2023/07/02 06:57:45;;;;;;;15.07;8.67;;;;;;;;;;5033569;28;20521;-75
2023/07/02 07:00:12;;;;;;;17.53;8.20;;;;;;;;;;5038229;28;20466;-74
2023/07/02 07:02:40;;;;;;;15.37;8.53;;;;;;;;;;5039238;28;20537;-73
2023/07/02 07:05:06;;;;;;;15.30;8.23;;;;;;;;;;5040341;28;20474;-74
2023/07/02 07:07:33;;;;;;;18.83;9.07;;;;;;;;;;5040034;28;20504;-73
2023/07/02 07:09:59;;;;;;;16.20;7.80;;;;;;;;;;5040239;28;20513;-74
2023/07/02 07:12:26;;;;;;;20.37;9.07;;;;;;;;;;5040523;28;20499;-74
2023/07/02 07:14:52;;;;;;;19.50;8.17;;;;;;;;;;5038200;28;20634;-73
2023/07/02 07:17:18;;;;;;;16.17;8.57;;;;;;;;;;5039381;28;20434;-74
2023/07/02 07:19:46;;;;;;;16.17;8.10;;;;;;;;;;5048396;28;20449;-83
2023/07/02 07:22:12;;;;;;;14.63;8.83;;;;;;;;;;5047242;28;20453;-83
2023/07/02 07:24:41;;;;;;;16.93;8.07;;;;;;;;;;5035506;28;20493;-81
2023/07/02 07:27:07;;;;;;;13.57;9.23;;;;;;;;;;5045993;28;20473;-83
2023/07/02 07:29:33;;;;;;;16.00;8.80;;;;;;;;;;5045854;28;20449;-74
2023/07/02 07:32:00;;;;;;;16.57;8.20;;;;;;;;;;5029807;28;20479;-73
2023/07/02 07:34:27;;;;;;;16.50;8.80;;;;;;;;;;5031970;28;20485;-74
2023/07/02 07:36:55;;;;;;;15.40;8.30;;;;;;;;;;5036882;28;20469;-73
2023/07/02 07:39:21;;;;;;;17.50;8.87;;;;;;;;;;5038966;28;20476;-75
2023/07/02 07:41:49;;;;;;;17.67;8.97;;;;;;;;;;5039517;28;20528;-75
2023/07/02 07:44:15;;;;;;;20.23;9.20;;;;;;;;;;5039582;28;20465;-74
2023/07/02 07:46:41;;;;;;;19.63;9.90;;;;;;;;;;5039082;28;20813;-73
2023/07/02 07:49:08;;;;;;;18.73;9.43;;;;;;;;;;5037292;28;20545;-74
2023/07/02 07:51:35;;;;;;;19.13;8.20;;;;;;;;;;5038562;28;20464;-75
2023/07/02 07:54:03;;;;;;;14.90;8.57;;;;;;;;;;5039613;28;20480;-76
2023/07/02 07:56:29;;;;;;;15.10;7.93;;;;;;;;;;5037872;28;20486;-75
2023/07/02 07:58:56;;;;;;;16.90;9.20;;;;;;;;;;5040309;28;20544;-75
2023/07/02 08:01:22;;;;;;;19.83;8.90;;;;;;;;;;5038903;28;20487;-75
2023/07/02 08:03:49;;;;;;;14.07;7.30;;;;;;;;;;5038566;28;20485;-76
2023/07/02 08:06:15;;;;;;;13.37;8.30;;;;;;;;;;5039283;28;20554;-75
2023/07/02 08:08:42;;;;;;;14.90;7.77;;;;;;;;;;5038543;28;20505;-75
2023/07/02 08:11:10;;;;;;;12.93;7.80;;;;;;;;;;5039141;28;20496;-74
2023/07/02 08:13:36;;;;;;;12.67;8.47;;;;;;;;;;5033964;28;20548;-75
2023/07/02 08:16:02;;;;;;;14.47;7.77;;;;;;;;;;5038423;28;20477;-74
2023/07/02 08:18:29;;;;;;;15.63;8.70;;;;;;;;;;5038732;28;20467;-74
2023/07/02 08:20:55;;;;;;;19.50;8.90;;;;;;;;;;5038841;28;20477;-76
2023/07/02 08:23:22;;;;;;;12.37;7.93;;;;;;;;;;5032428;28;20692;-74
2023/07/02 08:25:48;;;;;;;17.70;8.43;;;;;;;;;;5041282;28;20488;-74
2023/07/02 08:28:16;;;;;;;12.80;8.10;;;;;;;;;;5042873;28;20513;-73
2023/07/02 08:30:42;;;;;;;17.73;8.97;;;;;;;;;;5041149;28;20517;-74
2023/07/02 08:33:09;;;;;;;18.73;8.33;;;;;;;;;;5043114;28;20572;-73
2023/07/02 08:35:35;;;;;;;14.13;7.33;;;;;;;;;;5041517;28;20986;-74
2023/07/02 08:38:02;;;;;;;14.60;8.93;;;;;;;;;;5042183;28;20509;-74
2023/07/02 08:40:28;;;;;;;17.77;8.70;;;;;;;;;;5032945;28;20457;-75
2023/07/02 08:42:56;;;;;;;16.20;8.00;;;;;;;;;;5036531;28;20462;-76
2023/07/02 08:45:24;;;;;;;13.80;7.70;;;;;;;;;;5042087;28;20942;-74
2023/07/02 08:47:53;;;;;;;15.33;7.53;;;;;;;;;;5035350;28;20705;-75
2023/07/02 08:50:20;;;;;;;17.03;8.30;;;;;;;;;;5041136;28;20458;-75
2023/07/02 08:52:46;;;;;;;20.03;8.27;;;;;;;;;;5041372;28;20525;-74
2023/07/02 08:55:12;;;;;;;12.43;8.03;;;;;;;;;;5040170;28;20493;-75
2023/07/02 08:57:39;;;;;;;15.90;7.77;;;;;;;;;;5032783;28;20466;-76
2023/07/02 09:00:08;;;;;;;17.93;8.43;;;;;;;;;;5042896;28;20527;-76
2023/07/02 09:02:36;;;;;;;18.07;8.13;;;;;;;;;;5042044;28;20462;-75
2023/07/02 09:05:03;;;;;;;11.10;7.67;;;;;;;;;;5038866;28;20548;-77
2023/07/02 09:07:30;;;;;;;12.17;8.23;;;;;;;;;;5040752;28;20525;-77
2023/07/02 09:09:57;;;;;;;17.93;8.40;;;;;;;;;;5042525;28;20480;-76
2023/07/02 09:12:24;;;;;;;13.37;7.80;;;;;;;;;;5039813;28;20524;-76
2023/07/02 09:14:55;;;;;;;12.77;7.30;;;;;;;;;;5042499;28;20490;-75
2023/07/02 09:17:22;;;;;;;12.63;6.67;;;;;;;;;;5028681;28;20501;-76
2023/07/02 09:19:52;;;;;;;13.53;7.43;;;;;;;;;;5041760;28;20469;-75
2023/07/02 09:22:18;;;;;;;13.13;7.87;;;;;;;;;;5043131;28;20510;-76
2023/07/02 09:24:52;;;;;;;13.07;6.47;;;;;;;;;;5040720;28;20528;-75
2023/07/02 09:27:18;;;;;;;13.10;7.30;;;;;;;;;;5041367;28;20511;-74
2023/07/02 09:29:50;;;;;;;14.53;7.70;;;;;;;;;;5041483;28;20537;-75
2023/07/02 09:32:24;;;;;;;13.13;7.70;;;;;;;;;;5034828;28;20457;-76
2023/07/02 09:34:52;;;;;;;15.10;7.60;;;;;;;;;;5041416;28;20513;-75
2023/07/02 09:37:19;;;;;;;15.87;7.10;;;;;;;;;;5038763;28;20473;-75
2023/07/02 09:39:45;;;;;;;10.00;6.37;;;;;;;;;;5039249;28;20477;-75
2023/07/02 09:42:12;;;;;;;12.40;7.07;;;;;;;;;;5037337;28;20454;-75
2023/07/02 09:44:40;;;;;;;11.93;6.13;;;;;;;;;;5038430;28;20454;-75
2023/07/02 09:47:08;;;;;;;11.97;6.93;;;;;;;;;;5037071;28;20527;-75
2023/07/02 09:49:35;;;;;;;12.10;7.10;;;;;;;;;;5030796;28;20518;-76
2023/07/02 09:52:03;;;;;;;11.10;6.50;;;;;;;;;;5039597;28;20803;-75
2023/07/02 09:54:30;;;;;;;9.70;7.20;;;;;;;;;;5041556;28;20458;-76
2023/07/02 09:56:57;;;;;;;11.57;6.57;;;;;;;;;;5040905;28;20461;-76
2023/07/02 09:59:23;;;;;;;12.60;6.70;;;;;;;;;;5042023;28;20514;-77
2023/07/02 10:01:50;;;;;;;11.53;7.20;;;;;;;;;;5039773;28;20454;-76
2023/07/02 10:04:18;;;;;;;12.30;7.07;;;;;;;;;;5038040;28;21022;-77
2023/07/02 10:06:45;;;;;;;11.63;7.10;;;;;;;;;;5039418;28;20495;-77
2023/07/02 10:09:13;;;;;;;12.37;7.73;;;;;;;;;;5033421;28;20490;-76
2023/07/02 10:11:40;;;;;;;13.80;7.20;;;;;;;;;;5041689;28;20484;-76
2023/07/02 10:14:06;;;;;;;13.90;7.20;;;;;;;;;;5042163;28;20481;-76
2023/07/02 10:16:33;;;;;;;10.53;7.00;;;;;;;;;;5040872;28;20461;-77
2023/07/02 10:19:09;;;;;;;11.40;7.20;;;;;;;;;;5040641;28;20493;-76
2023/07/02 10:21:35;;;;;;;12.63;7.33;;;;;;;;;;5035758;28;20481;-76
2023/07/02 10:24:09;;;;;;;14.30;7.07;;;;;;;;;;5033348;28;20512;-77
2023/07/02 10:26:37;;;;;;;8.73;6.03;;;;;;;;;;5039881;28;20489;-76
2023/07/02 10:29:03;;;;;;;9.67;6.57;;;;;;;;;;5040106;28;20484;-77
2023/07/02 10:31:30;;;;;;;12.30;7.27;;;;;;;;;;5040449;28;20544;-76
2023/07/02 10:33:56;;;;;;;13.90;8.17;;;;;;;;;;5035944;28;20512;-76
2023/07/02 10:36:26;;;;;;;11.27;6.27;;;;;;;;;;5036259;28;20550;-76
2023/07/02 10:38:52;;;;;;;14.93;7.40;;;;;;;;;;5040949;28;21320;-76
2023/07/02 10:41:26;;;;;;;10.63;7.30;;;;;;;;;;5039995;28;20560;-76
2023/07/02 10:43:54;;;;;;;11.93;6.50;;;;;;;;;;5054315;28;21076;-76
2023/07/02 10:46:20;;;;;;;11.80;6.93;;;;;;;;;;5038287;28;20504;-75
2023/07/02 10:48:56;;;;;;;11.63;7.00;;;;;;;;;;5040874;28;20484;-75
2023/07/02 10:51:24;;;;;;;11.00;6.50;;;;;;;;;;5034858;28;21351;-76
2023/07/02 10:53:59;;;;;;;16.40;7.67;;;;;;;;;;5036070;28;20469;-76
2023/07/02 10:56:26;;;;;;;13.93;6.30;;;;;;;;;;5035617;28;20461;-76
2023/07/02 10:58:54;;;;;;;9.50;6.50;;;;;;;;;;5039395;28;20450;-77
2023/07/02 11:01:24;;;;;;;13.07;6.73;;;;;;;;;;5040385;28;20457;-76
2023/07/02 11:03:56;;;;;;;14.43;6.33;;;;;;;;;;5040096;28;20450;-77
2023/07/02 11:06:22;;;;;;;8.67;6.40;;;;;;;;;;5038331;28;20540;-77
2023/07/02 11:08:49;;;;;;;10.70;7.27;;;;;;;;;;5040899;28;20533;-76
2023/07/02 11:11:15;;;;;;;10.90;6.97;;;;;;;;;;5038341;28;20516;-77
2023/07/02 11:13:45;;;;;;;11.83;6.20;;;;;;;;;;5040004;28;20496;-77
2023/07/02 11:16:19;;;;;;;13.43;7.13;;;;;;;;;;5038619;28;20461;-77
2023/07/02 11:18:45;;;;;;;11.50;7.57;;;;;;;;;;5040311;28;20544;-77
2023/07/02 11:21:12;;;;;;;12.80;7.53;;;;;;;;;;5039473;28;20514;-75
2023/07/02 11:23:38;;;;;;;12.70;6.53;;;;;;;;;;5038573;28;20525;-77
2023/07/02 11:26:05;;;;;;;11.57;7.03;;;;;;;;;;5035913;28;20458;-77
2023/07/02 11:28:34;;;;;;;11.63;6.83;;;;;;;;;;5037944;28;20524;-75
2023/07/02 11:31:03;;;;;;;13.67;6.70;;;;;;;;;;5040245;28;20798;-76
2023/07/02 11:33:35;;;;;;;13.07;6.40;;;;;;;;;;5040292;28;20458;-77
2023/07/02 11:36:01;;;;;;;9.80;7.00;;;;;;;;;;5025693;28;20529;-76
2023/07/02 11:38:27;;;;;;;11.90;6.50;;;;;;;;;;5040393;28;20976;-75
2023/07/02 11:40:54;;;;;;;13.37;7.73;;;;;;;;;;5039220;28;20486;-75
2023/07/02 11:43:20;;;;;;;14.87;8.53;;;;;;;;;;5030925;28;20885;-75
2023/07/02 11:45:47;;;;;;;15.47;7.63;;;;;;;;;;5037623;28;20453;-76
2023/07/02 11:48:13;;;;;;;14.57;6.90;;;;;;;;;;5039654;28;21347;-77
2023/07/02 11:50:41;;;;;;;15.90;7.93;;;;;;;;;;5039949;28;20468;-75
2023/07/02 11:53:07;;;;;;;14.00;6.60;;;;;;;;;;5039533;28;20485;-76
2023/07/02 11:55:34;;;;;;;14.00;6.80;;;;;;;;;;5039315;28;20461;-77
2023/07/02 11:58:01;;;;;;;10.20;6.50;;;;;;;;;;5033250;28;21037;-75
2023/07/02 12:00:27;;;;;;;9.23;6.60;;;;;;;;;;5035927;28;20517;-77
2023/07/02 12:02:54;;;;;;;16.13;7.03;;;;;;;;;;5038645;28;20488;-76
2023/07/02 12:05:20;;;;;;;12.60;7.63;;;;;;;;;;5035401;28;20481;-76
2023/07/02 12:07:48;;;;;;;15.53;6.57;;;;;;;;;;5032416;28;20529;-76
2023/07/02 12:10:14;;;;;;;12.33;7.30;;;;;;;;;;5037577;28;20489;-77
2023/07/02 12:12:41;;;;;;;11.50;6.80;;;;;;;;;;5035698;28;20485;-75
2023/07/02 12:15:08;;;;;;;12.33;7.40;;;;;;;;;;5038306;28;20476;-75
2023/07/02 12:17:34;;;;;;;12.80;6.10;;;;;;;;;;5037435;28;20522;-77
2023/07/02 12:20:01;;;;;;;11.47;6.67;;;;;;;;;;5038103;28;20446;-77
2023/07/02 12:22:27;;;;;;;9.47;6.33;;;;;;;;;;5034590;28;20493;-78
2023/07/02 12:24:57;;;;;;;10.30;5.93;;;;;;;;;;5036762;28;20487;-79
2023/07/02 12:27:25;;;;;;;13.60;7.20;;;;;;;;;;5030871;28;20477;-77
2023/07/02 12:29:51;;;;;;;13.40;7.03;;;;;;;;;;5037846;28;20978;-77
2023/07/02 12:32:18;;;;;;;10.50;6.50;;;;;;;;;;5038572;28;20588;-78
2023/07/02 12:34:44;;;;;;;15.60;7.07;;;;;;;;;;5038610;28;20490;-78
2023/07/02 12:37:10;;;;;;;11.53;6.30;;;;;;;;;;5036931;28;20453;-79
2023/07/02 12:39:37;;;;;;;8.53;5.53;;;;;;;;;;5035561;28;20446;-79
2023/07/02 12:42:05;;;;;;;11.17;6.33;;;;;;;;;;5029775;28;20489;-79
2023/07/02 12:44:31;;;;;;;9.10;5.93;;;;;;;;;;5029485;28;20487;-78
2023/07/02 12:46:58;;;;;;;12.20;6.43;;;;;;;;;;5038485;28;20508;-80
2023/07/02 12:49:24;;;;;;;13.90;6.10;;;;;;;;;;5039064;28;20516;-79
2023/07/02 12:51:51;;;;;;;9.47;6.40;;;;;;;;;;5038360;28;20565;-78
2023/07/02 12:54:17;;;;;;;11.30;5.90;;;;;;;;;;5037956;28;21037;-78
2023/07/02 12:56:44;;;;;;;11.03;6.20;;;;;;;;;;5028878;28;20522;-78
2023/07/02 12:59:11;;;;;;;11.10;6.10;;;;;;;;;;5033477;28;20460;-78
2023/07/02 13:01:38;;;;;;;10.87;5.97;;;;;;;;;;5037076;28;21285;-80
2023/07/02 13:04:04;;;;;;;10.67;6.40;;;;;;;;;;5038728;28;20450;-79
2023/07/02 13:06:34;;;;;;;11.17;6.30;;;;;;;;;;5032751;28;20552;-80
2023/07/02 13:09:01;;;;;;;9.90;5.60;;;;;;;;;;5032353;28;20482;-80
2023/07/02 13:11:27;;;;;;;11.93;6.83;;;;;;;;;;5039464;28;20477;-80
2023/07/02 13:13:54;;;;;;;10.77;6.37;;;;;;;;;;5037863;28;20509;-81
2023/07/02 13:16:23;;;;;;;11.73;5.53;;;;;;;;;;5040749;28;20478;-77
2023/07/02 13:18:50;;;;;;;10.30;6.20;;;;;;;;;;5038855;28;20489;-80
2023/07/02 13:21:16;;;;;;;11.23;5.70;;;;;;;;;;5037742;28;20544;-81
2023/07/02 13:23:43;;;;;;;8.90;5.33;;;;;;;;;;5035968;28;20454;-80
2023/07/02 13:26:09;;;;;;;9.00;5.60;;;;;;;;;;5036828;28;20489;-79
2023/07/02 13:28:35;;;;;;;8.20;6.13;;;;;;;;;;5033400;28;20473;-80
2023/07/02 13:31:02;;;;;;;12.20;5.40;;;;;;;;;;5038930;28;20508;-81
2023/07/02 13:33:30;;;;;;;8.63;6.17;;;;;;;;;;5038917;28;20481;-79
2023/07/02 13:35:57;;;;;;;9.00;5.73;;;;;;;;;;5038322;28;20965;-78
2023/07/02 13:38:23;;;;;;;9.17;5.30;;;;;;;;;;5040021;28;20466;-77
2023/07/02 13:40:50;;;;;;;9.70;5.43;;;;;;;;;;5036800;28;20493;-78
2023/07/02 13:43:16;;;;;;;10.37;5.50;;;;;;;;;;5040688;28;20467;-78
2023/07/02 13:45:43;;;;;;;9.60;4.90;;;;;;;;;;5041330;28;20485;-79
2023/07/02 13:48:09;;;;;;;16.90;6.10;;;;;;;;;;5040941;28;20553;-78
2023/07/02 13:50:37;;;;;;;9.20;5.73;;;;;;;;;;5040571;28;20501;-80
2023/07/02 13:53:03;;;;;;;9.07;5.20;;;;;;;;;;5041352;28;21041;-78
2023/07/02 13:55:30;;;;;;;8.93;5.30;;;;;;;;;;5037569;28;20532;-79
2023/07/02 13:57:57;;;;;;;9.43;5.27;;;;;;;;;;5041915;28;20457;-78
2023/07/02 14:00:24;;;;;;;12.97;5.47;;;;;;;;;;5037925;28;20521;-79
2023/07/02 14:02:51;;;;;;;13.80;5.67;;;;;;;;;;5040219;28;20490;-79
2023/07/02 14:05:17;;;;;;;9.43;5.57;;;;;;;;;;5039159;28;20512;-79
2023/07/02 14:07:44;;;;;;;13.33;5.77;;;;;;;;;;5042035;28;20517;-79
2023/07/02 14:10:12;;;;;;;8.47;5.30;;;;;;;;;;5040019;28;20553;-79
2023/07/02 14:12:38;;;;;;;9.17;5.70;;;;;;;;;;5040551;28;20458;-80
2023/07/02 14:15:05;;;;;;;10.97;6.60;;;;;;;;;;5039887;28;20548;-80
2023/07/02 14:17:33;;;;;;;9.97;5.90;;;;;;;;;;5041945;28;20462;-80
2023/07/02 14:19:59;;;;;;;9.93;6.03;;;;;;;;;;5041620;28;20481;-79
2023/07/02 14:22:26;;;;;;;11.00;5.87;;;;;;;;;;5041004;28;20480;-79
2023/07/02 14:24:52;;;;;;;9.47;6.23;;;;;;;;;;5038948;28;20517;-79
2023/07/02 14:27:18;;;;;;;13.70;5.33;;;;;;;;;;5041005;28;20489;-80